BWA1528 TTPP-TTCP
Flight info
| Callsign | BWA1528 |
|---|---|
| Flight time | 0h 18m |
| Altitude | 9000 |
| Route | SASIM DCT NOTEL |
| Aircraft | AT76/M-SDFGIRY/S |
Departure
| Time | 2026-05-04 21:53 |
|---|---|
| Airport | Piarco International Airport (TTPP) |
Arrival
| Time | 2026-05-04 22:12 |
|---|---|
| Airport | A.N.R. Robinson International Airport (TTCP) |
| Time | Latitude | Longitude | Altitude | Speed | Heading |
|---|---|---|---|---|---|
| 2026-05-04 21:45 | 10.60152 | -61.33844 | 13 ft | 0 kts | 112° |
| 2026-05-04 21:46 | 10.60152 | -61.33843 | 13 ft | 0 kts | 112° |
| 2026-05-04 21:47 | 10.60120 | -61.33776 | 13 ft | 11 kts | 135° |
| 2026-05-04 21:47 | 10.60095 | -61.33756 | 13 ft | 0 kts | 143° |
| 2026-05-04 21:47 | 10.60081 | -61.33747 | 14 ft | 3 kts | 154° |
| 2026-05-04 21:48 | 10.60057 | -61.33743 | 13 ft | 4 kts | 174° |
| 2026-05-04 21:48 | 10.60026 | -61.33741 | 13 ft | 4 kts | 178° |
| 2026-05-04 21:48 | 10.59996 | -61.33740 | 13 ft | 4 kts | 178° |
| 2026-05-04 21:48 | 10.59967 | -61.33739 | 13 ft | 4 kts | 179° |
| 2026-05-04 21:49 | 10.59936 | -61.33739 | 13 ft | 5 kts | 181° |
| 2026-05-04 21:49 | 10.59863 | -61.33739 | 13 ft | 11 kts | 180° |
| 2026-05-04 21:49 | 10.59794 | -61.33740 | 13 ft | 9 kts | 179° |
| 2026-05-04 21:49 | 10.59740 | -61.33740 | 13 ft | 7 kts | 187° |
| 2026-05-04 21:50 | 10.59710 | -61.33767 | 13 ft | 6 kts | 256° |
| 2026-05-04 21:50 | 10.59730 | -61.33890 | 13 ft | 24 kts | 286° |
| 2026-05-04 21:50 | 10.59707 | -61.34045 | 14 ft | 21 kts | 262° |
| 2026-05-04 21:50 | 10.59706 | -61.34186 | 13 ft | 19 kts | 269° |
| 2026-05-04 21:51 | 10.59703 | -61.34319 | 13 ft | 18 kts | 269° |
| 2026-05-04 21:51 | 10.59697 | -61.34450 | 13 ft | 18 kts | 266° |
| 2026-05-04 21:51 | 10.59638 | -61.34536 | 13 ft | 14 kts | 186° |
| 2026-05-04 21:51 | 10.59554 | -61.34530 | 13 ft | 10 kts | 165° |
| 2026-05-04 21:52 | 10.59534 | -61.34507 | 13 ft | 0 kts | 90° |
| 2026-05-04 21:52 | 10.59535 | -61.34410 | 13 ft | 30 kts | 91° |
| 2026-05-04 21:52 | 10.59623 | -61.34159 | 14 ft | 54 kts | 94° |
| 2026-05-04 21:53 | 10.59552 | -61.33609 | 13 ft | 101 kts | 96° |
| 2026-05-04 21:53 | 10.59526 | -61.32782 | 145 ft | 126 kts | 88° |
| 2026-05-04 21:53 | 10.59624 | -61.31813 | 273 ft | 146 kts | 83° |
| 2026-05-04 21:53 | 10.59817 | -61.30909 | 931 ft | 124 kts | 81° |
| 2026-05-04 21:54 | 10.60063 | -61.29995 | 972 ft | 149 kts | 75° |
| 2026-05-04 21:54 | 10.60381 | -61.29029 | 1353 ft | 142 kts | 66° |
| 2026-05-04 21:54 | 10.60778 | -61.28181 | 1895 ft | 124 kts | 66° |
| 2026-05-04 21:54 | 10.61252 | -61.27422 | 2406 ft | 116 kts | 61° |
| 2026-05-04 21:55 | 10.61731 | -61.26676 | 2684 ft | 133 kts | 58° |
| 2026-05-04 21:55 | 10.62410 | -61.25959 | 2905 ft | 157 kts | 46° |
| 2026-05-04 21:55 | 10.63403 | -61.25252 | 2879 ft | 190 kts | 28° |
| 2026-05-04 21:55 | 10.64718 | -61.24937 | 3037 ft | 200 kts | 18° |
| 2026-05-04 21:56 | 10.65864 | -61.24162 | 3034 ft | 205 kts | 55° |
| 2026-05-04 21:56 | 10.66357 | -61.22813 | 3028 ft | 208 kts | 87° |
| 2026-05-04 21:56 | 10.66034 | -61.21375 | 3054 ft | 215 kts | 117° |
| 2026-05-04 21:56 | 10.64995 | -61.20287 | 3068 ft | 225 kts | 146° |
| 2026-05-04 21:57 | 10.63770 | -61.19490 | 3407 ft | 205 kts | 130° |
| 2026-05-04 21:57 | 10.63383 | -61.18170 | 3478 ft | 209 kts | 82° |
| 2026-05-04 21:57 | 10.64266 | -61.16923 | 3036 ft | 236 kts | 30° |
| 2026-05-04 21:57 | 10.65785 | -61.16690 | 3616 ft | 221 kts | 353° |
| 2026-05-04 21:58 | 10.67252 | -61.16872 | 4172 ft | 188 kts | 2° |
| 2026-05-04 21:58 | 10.68536 | -61.16894 | 4711 ft | 187 kts | 3° |
| 2026-05-04 21:58 | 10.69906 | -61.16926 | 4754 ft | 211 kts | 3° |
| 2026-05-04 21:58 | 10.71386 | -61.16962 | 4901 ft | 217 kts | 2° |
| 2026-05-04 21:59 | 10.72899 | -61.17009 | 5119 ft | 218 kts | 2° |
| 2026-05-04 21:59 | 10.74420 | -61.17095 | 5335 ft | 220 kts | 356° |
| 2026-05-04 21:59 | 10.75923 | -61.17345 | 5547 ft | 219 kts | 355° |
| 2026-05-04 21:59 | 10.77456 | -61.17531 | 5745 ft | 226 kts | 358° |
| 2026-05-04 22:00 | 10.79005 | -61.17644 | 5977 ft | 224 kts | 360° |
| 2026-05-04 22:00 | 10.80563 | -61.17763 | 6210 ft | 225 kts | 359° |
| 2026-05-04 22:00 | 10.82126 | -61.17894 | 6402 ft | 225 kts | 359° |
| 2026-05-04 22:00 | 10.83690 | -61.18029 | 6620 ft | 228 kts | 359° |
| 2026-05-04 22:01 | 10.85282 | -61.18163 | 6812 ft | 230 kts | 359° |
| 2026-05-04 22:01 | 10.86904 | -61.18297 | 6913 ft | 240 kts | 359° |
| 2026-05-04 22:01 | 10.88591 | -61.18429 | 6962 ft | 244 kts | 359° |
| 2026-05-04 22:01 | 10.90274 | -61.18554 | 6986 ft | 238 kts | 1° |
| 2026-05-04 22:02 | 10.91900 | -61.18658 | 7001 ft | 233 kts | 360° |
| 2026-05-04 22:02 | 10.93516 | -61.18738 | 7001 ft | 227 kts | 9° |
| 2026-05-04 22:02 | 10.94882 | -61.18131 | 7005 ft | 215 kts | 48° |
| 2026-05-04 22:02 | 10.95662 | -61.16882 | 7010 ft | 209 kts | 65° |
| 2026-05-04 22:03 | 10.96360 | -61.15574 | 7003 ft | 212 kts | 63° |
| 2026-05-04 22:03 | 10.97139 | -61.14286 | 6916 ft | 217 kts | 58° |
| 2026-05-04 22:03 | 10.98008 | -61.13019 | 6772 ft | 218 kts | 57° |
| 2026-05-04 22:03 | 10.98958 | -61.11848 | 6617 ft | 211 kts | 51° |
| 2026-05-04 22:04 | 10.99987 | -61.10780 | 6459 ft | 212 kts | 46° |
| 2026-05-04 22:04 | 11.01106 | -61.09793 | 6270 ft | 214 kts | 43° |
| 2026-05-04 22:04 | 11.02288 | -61.08871 | 6050 ft | 214 kts | 38° |
| 2026-05-04 22:04 | 11.03538 | -61.08055 | 5800 ft | 218 kts | 33° |
| 2026-05-04 22:05 | 11.04896 | -61.07318 | 5607 ft | 219 kts | 29° |
| 2026-05-04 22:05 | 11.06253 | -61.06674 | 5417 ft | 217 kts | 28° |
| 2026-05-04 22:05 | 11.07641 | -61.06045 | 5230 ft | 220 kts | 27° |
| 2026-05-04 22:05 | 11.09035 | -61.05413 | 5037 ft | 218 kts | 28° |
| 2026-05-04 22:06 | 11.10411 | -61.04768 | 4844 ft | 217 kts | 28° |
| 2026-05-04 22:06 | 11.11795 | -61.04110 | 4650 ft | 220 kts | 29° |
| 2026-05-04 22:06 | 11.13170 | -61.03448 | 4448 ft | 217 kts | 28° |
| 2026-05-04 22:06 | 11.14531 | -61.02794 | 4253 ft | 216 kts | 29° |
| 2026-05-04 22:07 | 11.15640 | -61.01859 | 4021 ft | 206 kts | 63° |
| 2026-05-04 22:07 | 11.16031 | -61.00522 | 3803 ft | 193 kts | 82° |
| 2026-05-04 22:07 | 11.16096 | -60.99247 | 3557 ft | 170 kts | 95° |
| 2026-05-04 22:07 | 11.15993 | -60.98074 | 3089 ft | 163 kts | 95° |
| 2026-05-04 22:08 | 11.15847 | -60.96944 | 2727 ft | 155 kts | 96° |
| 2026-05-04 22:08 | 11.15775 | -60.95895 | 2394 ft | 137 kts | 89° |
| 2026-05-04 22:08 | 11.15844 | -60.94983 | 2005 ft | 124 kts | 88° |
| 2026-05-04 22:08 | 11.15853 | -60.94112 | 1763 ft | 111 kts | 84° |
| 2026-05-04 22:09 | 11.15810 | -60.93388 | 1465 ft | 107 kts | 96° |
| 2026-05-04 22:09 | 11.15726 | -60.92633 | 1392 ft | 104 kts | 94° |
| 2026-05-04 22:09 | 11.15652 | -60.91879 | 1332 ft | 112 kts | 97° |
| 2026-05-04 22:09 | 11.15512 | -60.91095 | 1374 ft | 108 kts | 93° |
| 2026-05-04 22:10 | 11.15400 | -60.90316 | 1301 ft | 117 kts | 93° |
| 2026-05-04 22:10 | 11.15347 | -60.89465 | 1179 ft | 125 kts | 89° |
| 2026-05-04 22:10 | 11.15365 | -60.88588 | 1059 ft | 128 kts | 92° |
| 2026-05-04 22:10 | 11.15292 | -60.87714 | 885 ft | 122 kts | 92° |
| 2026-05-04 22:11 | 11.15203 | -60.86868 | 661 ft | 121 kts | 92° |
| 2026-05-04 22:11 | 11.15183 | -60.86041 | 452 ft | 112 kts | 94° |
| 2026-05-04 22:11 | 11.15127 | -60.85260 | 279 ft | 113 kts | 98° |
| 2026-05-04 22:11 | 11.15063 | -60.84473 | 150 ft | 111 kts | 96° |
| 2026-05-04 22:12 | 11.15006 | -60.83649 | 38 ft | 118 kts | 95° |
| 2026-05-04 22:12 | 11.14944 | -60.82899 | 39 ft | 98 kts | 94° |
| 2026-05-04 22:12 | 11.14906 | -60.82532 | 37 ft | 7 kts | 103° |
| 2026-05-04 22:12 | 11.14888 | -60.82423 | 38 ft | 25 kts | 101° |
| 2026-05-04 22:13 | 11.14851 | -60.82385 | 38 ft | 3 kts | 238° |
| 2026-05-04 22:13 | 11.14881 | -60.82492 | 38 ft | 31 kts | 288° |
| 2026-05-04 22:13 | 11.14935 | -60.82804 | 38 ft | 58 kts | 274° |
| 2026-05-04 22:13 | 11.14977 | -60.83276 | 35 ft | 75 kts | 276° |
| 2026-05-04 22:14 | 11.15013 | -60.83800 | 36 ft | 54 kts | 276° |
| 2026-05-04 22:14 | 11.15055 | -60.83980 | 35 ft | 3 kts | 341° |
| 2026-05-04 22:14 | 11.15156 | -60.83981 | 37 ft | 8 kts | 342° |
| 2026-05-04 22:14 | 11.15199 | -60.83997 | 36 ft | 0 kts | 330° |